Cuyahoga Falls, OH

4:33 AM EST on November 14, 2019 (GMT -0500)
Cuyahoga Falls | | Change Station

Elev 1040 ft 41.14 °N, 81.50 °W | Updated 11 seconds ago

Snow
Snow
26.2 °F
Feels Like 26 °F
N
0
Wind Variable Wind from South
Gusts 0.0 mph

Today
High -- | Low -- °F
--% Chance of Precip.
Yesterday
High -- | Low -- °F
Precip. -- in
Pressure 30.20 in
Visibility 10.0 miles
Clouds Mostly Cloudy 5000 ft
Mostly Cloudy 7000 ft
Overcast 8500 ft
Windchill 26 °F
Dew Point 24 °F
Humidity 91%
Rainfall 0.00 in
Snow Depth Not available.
7:12 AM 5:07 PM
Waning Gibbous, 97% visible
METAR KAKR 140854Z AUTO 14003KT 10SM BKN050 BKN070 OVC085 M02/M06 A3016 RMK AO2 SNE19 SLP226 P0000 60000 T10171061 58001 $
Pressure 30.20 in
Visibility 10.0 miles
Clouds Mostly Cloudy 5000 ft
Mostly Cloudy 7000 ft
Overcast 8500 ft
Windchill 26 °F
Dew Point 24 °F
Humidity 91%
Rainfall 0.00 in
Snow Depth Not available.
7:12 AM 5:07 PM
Waning Gibbous, 97% visible
METAR KAKR 140854Z AUTO 14003KT 10SM BKN050 BKN070 OVC085 M02/M06 A3016 RMK AO2 SNE19 SLP226 P0000 60000 T10171061 58001 $

Get Severe Weather Alerts

Thanks for signing up!

Be on the lookout for a verification email in your inbox.

You'll start receiving the daily forecast at 6 AM.

×

10-Day Weather Forecast

Almanac

Astronomy

Nov. 14, 2019 Rise Set
Actual Time
Civil Twilight
Nautical Twilight
Astronomical Twilight
Moon
Length of Visible Light
Length of Day
Tomorrow will be .
, % of the Moon is Illuminated

Today's Extremes

State Highs State Lows

Community

WunderPhotos

Category 6

Welcome to Category 6. This is the collective home for Weather Underground's featured writeups by Dr. Jeff Masters (right), Bob Henson (left), Chris Burt, and other regular contributors.

Nearby

Air Quality

  Air Quality AQ Index Pollutant
Not available.

Snow Depth

Station Depth Elevation

Earthquake Activity

City Distance Mag. Time & Date
Minimum magnitude displayed is 2.5.

Coastal Water Temperatures

Place Temperature

Stations

Nearby Weather Stations

Station Location Temp. Windchill Dew Point Humidity Wind Precip. Elev Updated Type
                   

Watches & Warnings

There are currently no watches in effect.